Meteo Giornale » Osservazioni meteo Stati Uniti (USA) » Mc Gregor
ore: 02:56 - Osservazioni Meteo Mc Gregor
Lat. 31° 29' N Lon. 97° 19' W Alt. 180 metri s.l.m.
28 °C
Sereno
Temp. 24 Ore
24 °C
38 °C
Sud
13 Km/h
Dew point 22 °C
Umidità 69 %
Visibilità 10 Km
Il sole sorge alle ore 07:05
Il sole tramonta alle ore 19:53
| Data e Ora | Cielo e Fenomeni | T °C | DP °C | Um. % | Pres. hPa | Vis. km | Vento km/h | |
|---|---|---|---|---|---|---|---|---|
| Oggi h: 02:56 | Sereno | 28 | 22 | 69 | 1016 | 10 | S 13 | |
| Oggi h: 01:56 | Sereno | 28 | 21 | 65 | 1016 | 10 | S 14.8 | |
| Oggi h: 00:56 | Sereno | 28 | 19 | 58 | 1016 | 10 | S 13 | |
| Ieri h: 23:56 | Sereno | 28 | 17 | 51 | 1015 | 10 | S/SE 11.1 | |
| Ieri h: 22:56 | Sereno | 28 | 17 | 51 | 1015 | 10 | N 0 | |
| Ieri h: 21:56 | Sereno | 29 | 16 | 45 | 1014 | 10 | N 5.5 | |
| Ieri h: 20:56 | Sereno | 32 | 16 | 38 | 1014 | 10 | S/SE 7.4 | |
| Ieri h: 19:56 | Sereno | 34 | 16 | 34 | 1013 | 10 | E/SE 11.1 | |
| Ieri h: 18:56 | Sereno | 36 | 17 | 32 | 1013 | 10 | E/SE 16.7 | |
| Ieri h: 17:56 | Poco Nuvoloso | 37 | 16 | 28 | 1014 | 10 | SE 14.8 | |
| Ieri h: 16:56 | Molto Nuvoloso | 38 | 16 | 27 | 1014 | 10 | SE 16.7 | |
| Ieri h: 15:56 | Sereno | 38 | 17 | 29 | 1014 | 10 | S/SE 14.8 | |
| Ieri h: 14:56 | Sereno | 37 | 18 | 32 | 1015 | 10 | S/SE 14.8 | |
| Ieri h: 13:56 | Sereno | 36 | 18 | 34 | 1016 | 10 | SE 18.5 | |
| Ieri h: 12:56 | Sereno | 36 | 19 | 36 | 1017 | 10 | SE 18.5 | |
| Ieri h: 11:56 | Sereno | 35 | 20 | 41 | 1017 | 10 | S 18.5 | |
| Ieri h: 10:56 | Sereno | 32 | 22 | 55 | 1018 | 10 | S/SE 11.1 | |
| Ieri h: 09:56 | Sereno | 31 | 23 | 62 | 1017 | 10 | S 11.1 | |
| Ieri h: 08:56 | Sereno | 28 | 24 | 78 | 1017 | 10 | S/SO 11.1 | |
| Ieri h: 07:56 | Sereno | 26 | 23 | 83 | 1017 | 10 | N 5.5 | |
| Ieri h: 06:56 | Sereno | 24 | 23 | 94 | 1016 | 10 | S 7.4 | |
| Ieri h: 05:56 | Sereno | 25 | 23 | 88 | 1015 | 10 | S 13 | |
| Ieri h: 04:56 | Sereno | 25 | 22 | 83 | 1016 | 10 | S 14.8 | |
| Ieri h: 03:56 | Sereno | 26 | 21 | 73 | 1015 | 10 | S 13 | |



